Time;durP1;ratioP1;P1;durP2;ratioP2;P2;SDS_P1;SDS_P2;PMS_P1;PMS_P2;Temp;Humidity;BMP_temperature;BMP_pressure;BME280_temperature;BME280_humidity;BME280_pressure;Samples;Min_cycle;Max_cycle;Signal;HPM_P1;HPM_P2
2022/05/25 00:00:11;;;;;;;15.15;12.05;;;10.40;88.90;;;;;;5054797;28;20091;-76
2022/05/25 00:02:38;;;;;;;15.25;10.82;;;10.40;89.20;;;;;;5054570;28;20048;-78
2022/05/25 00:05:06;;;;;;;11.63;10.15;;;10.40;88.90;;;;;;5054550;28;20059;-75
2022/05/25 00:07:32;;;;;;;15.40;11.60;;;10.40;88.60;;;;;;5054518;28;20123;-78
2022/05/25 00:09:58;;;;;;;16.25;9.48;;;10.40;89.40;;;;;;5054688;28;20080;-76
2022/05/25 00:12:24;;;;;;;16.60;11.30;;;10.40;89.50;;;;;;5054563;28;20543;-74
2022/05/25 00:14:50;;;;;;;16.27;10.32;;;10.40;89.70;;;;;;5038242;28;20036;-75
2022/05/25 00:17:16;;;;;;;13.25;9.55;;;10.40;89.80;;;;;;5054870;28;20295;-78
2022/05/25 00:20:00;;;;;;;13.70;10.40;;;10.40;89.80;;;;;;5022167;28;20289;-77
2022/05/25 00:22:29;;;;;;;11.77;8.97;;;10.40;89.70;;;;;;5038293;28;20048;-78
2022/05/25 00:24:57;;;;;;;13.40;10.18;;;10.40;89.40;;;;;;5054577;28;20048;-77
2022/05/25 00:27:23;;;;;;;14.00;8.95;;;10.40;89.90;;;;;;5054861;28;20048;-76
2022/05/25 00:29:49;;;;;;;17.00;9.18;;;10.40;89.80;;;;;;5054497;28;20408;-76
2022/05/25 00:32:14;;;;;;;14.82;9.93;;;10.40;89.80;;;;;;5054572;28;20037;-75
2022/05/25 00:34:40;;;;;;;10.90;7.53;;;10.40;89.80;;;;;;5054496;28;20040;-76
2022/05/25 00:37:06;;;;;;;13.57;9.55;;;10.40;89.60;;;;;;5021518;28;20044;-79
2022/05/25 00:39:32;;;;;;;15.93;9.90;;;10.40;89.50;;;;;;5038284;28;20116;-75
2022/05/25 00:41:57;;;;;;;11.13;9.07;;;10.40;89.40;;;;;;5054428;28;20052;-78
2022/05/25 00:44:23;;;;;;;15.77;10.52;;;10.50;89.90;;;;;;5037954;28;20203;-76
2022/05/25 00:46:50;;;;;;;11.90;9.60;;;10.50;90.80;;;;;;5054433;28;20454;-75
2022/05/25 00:49:22;;;;;;;12.90;9.32;;;10.50;90.20;;;;;;5054392;28;20037;-78
2022/05/25 00:51:53;;;;;;;22.67;11.43;;;10.50;90.70;;;;;;5054330;28;20049;-76
2022/05/25 00:54:28;;;;;;;13.43;10.07;;;10.50;90.20;;;;;;5054451;28;20391;-78
2022/05/25 00:56:56;;;;;;;13.82;10.40;;;10.50;90.50;;;;;;5054364;28;20133;-78
2022/05/25 00:59:29;;;;;;;12.13;10.18;;;10.40;90.30;;;;;;5055572;28;20484;-76
2022/05/25 01:01:55;;;;;;;17.35;12.43;;;10.50;90.30;;;;;;5057837;28;20043;-75
2022/05/25 01:04:22;;;;;;;14.68;12.05;;;10.50;91.20;;;;;;5041398;28;20044;-76
2022/05/25 01:06:53;;;;;;;19.30;12.27;;;10.50;91.20;;;;;;5057814;28;20083;-77
2022/05/25 01:09:25;;;;;;;16.45;11.45;;;10.50;91.50;;;;;;5041253;28;20089;-77
2022/05/25 01:12:02;;;;;;;16.13;11.05;;;10.50;91.70;;;;;;5058003;28;20506;-75
2022/05/25 01:14:51;;;;;;;16.42;11.27;;;10.50;91.70;;;;;;5058004;28;20097;-77
2022/05/25 01:17:48;;;;;;;15.85;11.43;;;10.50;91.20;;;;;;5041314;28;20042;-75
2022/05/25 01:20:27;;;;;;;17.15;11.98;;;10.50;90.60;;;;;;5057590;28;20044;-75
2022/05/25 01:23:21;;;;;;;18.65;12.15;;;10.50;90.60;;;;;;5057797;28;20392;-78
2022/05/25 01:26:02;;;;;;;14.52;11.18;;;10.50;91.00;;;;;;5040825;28;20097;-76
2022/05/25 01:28:52;;;;;;;16.85;11.68;;;10.50;90.70;;;;;;5057750;28;20396;-74
2022/05/25 01:31:50;;;;;;;16.88;10.85;;;10.60;90.80;;;;;;5040670;28;20066;-79
2022/05/25 01:34:29;;;;;;;16.30;10.65;;;10.50;91.10;;;;;;5057212;28;20409;-76
2022/05/25 01:37:13;;;;;;;12.43;9.68;;;10.60;91.60;;;;;;5057467;28;20048;-76
2022/05/25 01:39:44;;;;;;;13.73;9.10;;;10.60;91.10;;;;;;5057192;28;20036;-73
2022/05/25 01:42:24;;;;;;;13.35;9.52;;;10.60;90.80;;;;;;5057602;28;20074;-77
2022/05/25 01:44:56;;;;;;;12.27;9.15;;;10.60;90.80;;;;;;5057227;28;20063;-76
2022/05/25 01:47:25;;;;;;;14.25;8.95;;;10.60;91.50;;;;;;5057116;28;20033;-77
2022/05/25 01:49:51;;;;;;;12.48;9.77;;;10.60;91.10;;;;;;5056936;28;20043;-78
2022/05/25 01:52:27;;;;;;;12.63;9.50;;;10.60;91.90;;;;;;5057523;28;20037;-80
2022/05/25 01:54:57;;;;;;;13.77;9.23;;;10.60;91.70;;;;;;5040180;28;20106;-80
2022/05/25 01:57:27;;;;;;;14.75;8.38;;;10.60;91.70;;;;;;5057101;28;20491;-75
2022/05/25 01:59:52;;;;;;;13.60;9.20;;;10.60;91.60;;;;;;5057087;28;20041;-76
2022/05/25 02:05:10;;;;;;;;;;;10.70;92.10;;;;;;5057479;28;20103;-74
2022/05/25 02:08:04;;;;;;;14.05;9.32;;;10.70;92.70;;;;;;5057022;28;20257;-75
2022/05/25 02:11:01;;;;;;;12.05;8.18;;;10.70;92.40;;;;;;5055785;28;20044;-76
2022/05/25 02:13:32;;;;;;;10.25;8.32;;;10.70;92.40;;;;;;5039717;28;20051;-78
2022/05/25 02:16:49;;;;;;;12.30;8.32;;;10.60;92.40;;;;;;5056837;28;20542;-78
2022/05/25 02:19:37;;;;;;;12.57;8.60;;;10.70;92.60;;;;;;5013375;28;20048;-75
2022/05/25 02:22:29;;;;;;;15.55;9.00;;;10.70;92.70;;;;;;5056578;28;20063;-77
2022/05/25 02:25:46;;;;;;;12.90;8.80;;;10.60;92.90;;;;;;5040031;28;20040;-76
2022/05/25 02:28:15;;;;;;;10.95;6.28;;;10.60;92.70;;;;;;4985852;28;20084;-76
2022/05/25 02:30:47;;;;;;;12.77;7.68;;;10.60;92.40;;;;;;5056270;28;20037;-77
2022/05/25 02:33:17;;;;;;;13.80;7.55;;;10.50;92.50;;;;;;5039720;28;20044;-77
2022/05/25 02:35:46;;;;;;;18.15;8.30;;;10.60;92.40;;;;;;5056525;28;20396;-76
2022/05/25 02:38:13;;;;;;;12.82;8.05;;;10.50;92.30;;;;;;5056129;28;20129;-77
2022/05/25 02:40:40;;;;;;;12.73;9.13;;;10.50;92.50;;;;;;5056310;28;20385;-77
2022/05/25 02:43:08;;;;;;;10.90;8.75;;;10.60;91.90;;;;;;5056359;28;20392;-76
2022/05/25 02:45:35;;;;;;;14.65;7.30;;;10.50;92.10;;;;;;5056160;28;20396;-76
2022/05/25 02:48:01;;;;;;;14.23;8.68;;;10.50;92.40;;;;;;5039355;28;20079;-73
2022/05/25 02:50:27;;;;;;;12.35;8.05;;;10.50;92.90;;;;;;5055766;28;20036;-76
2022/05/25 02:52:53;;;;;;;13.88;8.00;;;10.50;92.80;;;;;;5039256;28;20036;-76
2022/05/25 02:55:19;;;;;;;13.80;8.88;;;10.50;92.60;;;;;;5039085;28;20091;-75
2022/05/25 02:57:45;;;;;;;14.80;8.18;;;10.50;93.00;;;;;;5055807;28;20048;-76
2022/05/25 03:00:12;;;;;;;11.35;7.40;;;10.50;92.90;;;;;;5055972;28;20094;-75
2022/05/25 03:02:37;;;;;;;12.60;7.22;;;10.50;92.90;;;;;;5039163;28;20040;-76
2022/05/25 03:05:05;;;;;;;12.25;8.10;;;10.50;92.90;;;;;;5055777;28;20040;-73
2022/05/25 03:07:31;;;;;;;11.10;7.88;;;10.40;92.90;;;;;;5055610;28;20033;-75
2022/05/25 03:09:56;;;;;;;10.77;7.28;;;10.40;92.80;;;;;;5055461;28;20051;-75
2022/05/25 03:12:22;;;;;;;11.55;7.40;;;10.40;92.90;;;;;;5038984;28;20052;-77
2022/05/25 03:14:48;;;;;;;11.48;7.82;;;10.30;93.10;;;;;;5055471;28;20223;-77
2022/05/25 03:17:14;;;;;;;11.27;7.68;;;10.30;93.10;;;;;;5055618;28;20139;-76
2022/05/25 03:19:41;;;;;;;9.98;6.93;;;10.20;93.10;;;;;;5055394;28;20041;-77
2022/05/25 03:22:08;;;;;;;12.27;8.15;;;10.20;93.10;;;;;;5038600;28;20045;-77
2022/05/25 03:24:33;;;;;;;12.25;6.68;;;10.20;93.20;;;;;;5038468;28;20036;-74
2022/05/25 03:26:59;;;;;;;11.52;7.53;;;10.20;93.20;;;;;;5055152;28;20048;-77
2022/05/25 03:29:26;;;;;;;10.00;7.43;;;10.30;93.30;;;;;;5055517;28;20051;-77
2022/05/25 03:31:52;;;;;;;11.80;9.23;;;10.20;93.40;;;;;;5038672;28;20089;-76
2022/05/25 03:34:18;;;;;;;14.20;8.32;;;10.30;93.50;;;;;;5055176;28;20125;-77
2022/05/25 03:36:45;;;;;;;12.75;8.00;;;10.30;93.20;;;;;;5055691;28;20435;-79
2022/05/25 03:39:11;;;;;;;15.07;8.52;;;10.30;93.20;;;;;;5055087;28;20105;-79
2022/05/25 03:41:36;;;;;;;14.55;8.55;;;10.40;93.50;;;;;;5038417;28;20044;-74
2022/05/25 03:44:02;;;;;;;14.77;8.13;;;10.40;93.20;;;;;;5038516;28;20044;-77
2022/05/25 03:46:28;;;;;;;13.25;9.13;;;10.40;92.60;;;;;;5055039;28;20080;-74
2022/05/25 03:48:54;;;;;;;16.83;8.30;;;10.40;93.20;;;;;;5054923;28;20095;-75
2022/05/25 03:51:19;;;;;;;10.80;7.05;;;10.50;93.80;;;;;;5055065;28;20055;-77
2022/05/25 03:53:46;;;;;;;12.05;8.38;;;10.50;93.60;;;;;;5055068;28;20037;-75
2022/05/25 03:56:12;;;;;;;11.18;7.63;;;10.50;93.50;;;;;;5055088;28;20496;-76
2022/05/25 03:58:37;;;;;;;12.27;8.95;;;10.50;93.30;;;;;;5055083;28;20048;-75
2022/05/25 04:01:03;;;;;;;13.00;6.68;;;10.60;93.50;;;;;;5055017;28;20040;-76
2022/05/25 04:03:29;;;;;;;16.45;9.15;;;10.60;93.40;;;;;;5038648;28;20137;-77
2022/05/25 04:05:55;;;;;;;11.70;7.75;;;10.60;93.80;;;;;;5038507;28;20485;-75
2022/05/25 04:08:20;;;;;;;15.40;9.77;;;10.60;93.30;;;;;;5038719;28;20051;-76
2022/05/25 04:10:46;;;;;;;13.63;8.77;;;10.70;93.40;;;;;;5055412;28;20043;-74
2022/05/25 04:13:12;;;;;;;16.65;8.50;;;10.70;93.40;;;;;;5038772;28;20174;-77
2022/05/25 04:15:37;;;;;;;14.00;8.32;;;10.70;93.70;;;;;;5055230;28;20047;-77
2022/05/25 04:18:04;;;;;;;12.43;7.60;;;10.70;93.90;;;;;;5055402;28;20036;-75
2022/05/25 04:20:31;;;;;;;12.25;6.97;;;10.70;94.10;;;;;;5038712;28;20045;-75
2022/05/25 04:22:57;;;;;;;10.98;7.38;;;10.70;93.70;;;;;;5055214;28;20040;-75
2022/05/25 04:25:24;;;;;;;8.85;6.97;;;10.70;93.50;;;;;;5055254;28;20101;-73
2022/05/25 04:27:52;;;;;;;14.63;8.02;;;10.70;93.60;;;;;;5055247;28;20054;-74
2022/05/25 04:30:21;;;;;;;12.02;7.40;;;10.80;94.10;;;;;;5055152;28;20036;-76
2022/05/25 04:32:47;;;;;;;13.25;8.05;;;10.80;93.80;;;;;;5055208;28;20041;-76
2022/05/25 04:35:14;;;;;;;10.65;6.80;;;10.80;93.90;;;;;;5057452;28;20094;-74
2022/05/25 04:37:55;;;;;;;11.85;7.68;;;10.80;94.30;;;;;;5059039;28;20115;-72
2022/05/25 04:40:23;;;;;;;9.32;5.75;;;10.80;93.90;;;;;;5058832;28;20048;-74
2022/05/25 04:42:50;;;;;;;7.38;6.22;;;10.90;94.10;;;;;;5042249;28;20557;-74
2022/05/25 04:45:16;;;;;;;10.75;5.68;;;10.90;94.40;;;;;;5058714;28;20050;-74
2022/05/25 04:47:42;;;;;;;11.45;5.68;;;11.00;94.10;;;;;;5058597;28;20503;-73
2022/05/25 04:50:09;;;;;;;9.30;5.25;;;11.00;93.80;;;;;;5058543;28;20041;-74
2022/05/25 04:52:37;;;;;;;9.52;4.85;;;11.10;93.80;;;;;;5058686;28;20040;-74
2022/05/25 04:55:03;;;;;;;8.88;5.50;;;11.10;93.80;;;;;;5055259;28;20068;-73
2022/05/25 04:57:29;;;;;;;9.10;5.07;;;11.30;94.10;;;;;;5038992;28;20049;-73
2022/05/25 04:59:59;;;;;;;8.45;4.57;;;11.30;94.40;;;;;;5055350;28;20044;-73
2022/05/25 05:02:25;;;;;;;8.63;5.20;;;11.40;94.40;;;;;;5038572;28;20482;-74
2022/05/25 05:04:51;;;;;;;8.00;4.13;;;11.40;94.20;;;;;;5055136;28;20048;-74
2022/05/25 05:07:17;;;;;;;13.70;5.13;;;11.50;94.20;;;;;;5038529;28;20412;-74
2022/05/25 05:09:45;;;;;;;7.60;3.65;;;11.60;93.80;;;;;;5038022;28;20044;-75
2022/05/25 05:12:13;;;;;;;11.52;3.90;;;11.60;93.60;;;;;;5054686;28;20037;-73
2022/05/25 05:14:39;;;;;;;5.82;3.80;;;11.70;94.00;;;;;;5022200;28;20044;-75
2022/05/25 05:17:06;;;;;;;8.75;4.88;;;11.80;94.10;;;;;;5038155;28;20388;-75
2022/05/25 05:19:32;;;;;;;7.90;4.25;;;11.90;93.90;;;;;;5054898;28;20044;-74
2022/05/25 05:21:58;;;;;;;6.82;3.95;;;11.90;93.80;;;;;;5054707;28;20489;-75
2022/05/25 05:24:25;;;;;;;6.07;3.60;;;12.00;93.70;;;;;;5054046;28;20056;-75
2022/05/25 05:26:50;;;;;;;6.45;3.83;;;12.00;93.50;;;;;;5054466;28;20041;-75
2022/05/25 05:29:16;;;;;;;9.18;3.70;;;12.10;93.10;;;;;;5054697;28;20037;-75
2022/05/25 05:31:42;;;;;;;9.02;4.18;;;12.20;93.30;;;;;;5054572;28;20049;-76
2022/05/25 05:34:08;;;;;;;9.07;3.80;;;12.30;93.20;;;;;;5052152;28;20439;-76
2022/05/25 05:36:39;;;;;;;19.45;5.03;;;12.40;93.00;;;;;;5017366;28;20052;-75
2022/05/25 05:39:08;;;;;;;9.75;4.22;;;12.50;92.80;;;;;;5032251;28;20485;-76
2022/05/25 05:42:11;;;;;;;10.60;3.70;;;12.50;92.50;;;;;;5034064;28;20049;-74
2022/05/25 05:44:45;;;;;;;7.43;3.97;;;12.60;92.30;;;;;;5029998;28;20049;-74
2022/05/25 05:47:13;;;;;;;;;;;12.70;92.20;;;;;;5034560;28;20099;-79
2022/05/25 05:49:40;;;;;;;5.85;4.00;;;12.80;91.90;;;;;;5033637;28;19924;-76
2022/05/25 05:52:06;;;;;;;7.22;4.20;;;12.80;91.70;;;;;;5032455;28;20034;-79
2022/05/25 05:54:32;;;;;;;9.45;3.70;;;12.90;91.50;;;;;;5035468;28;20068;-74
2022/05/25 05:56:58;;;;;;;9.13;5.10;;;13.00;91.20;;;;;;5018149;28;20059;-76
2022/05/25 05:59:24;;;;;;;13.75;6.07;;;13.00;91.10;;;;;;5036261;28;20040;-76
2022/05/25 06:01:49;;;;;;;6.60;3.95;;;13.10;90.70;;;;;;5037690;28;20044;-76
2022/05/25 06:04:16;;;;;;;9.35;4.60;;;13.20;90.50;;;;;;5041269;28;20395;-80
2022/05/25 06:06:42;;;;;;;11.15;4.18;;;13.30;90.30;;;;;;5022809;28;20109;-76
2022/05/25 06:09:08;;;;;;;9.07;3.83;;;13.40;90.20;;;;;;5038963;28;20044;-74
2022/05/25 06:11:40;;;;;;;10.25;3.60;;;13.40;89.70;;;;;;5043259;28;20044;-78
2022/05/25 06:14:06;;;;;;;10.52;4.68;;;13.50;89.30;;;;;;5036197;28;20040;-75
2022/05/25 06:19:28;;;;;;;7.82;4.22;;;13.50;89.20;;;;;;5036865;28;20057;-73
2022/05/25 06:22:07;;;;;;;8.63;3.65;;;13.70;89.10;;;;;;5025154;28;20056;-75
2022/05/25 06:24:44;;;;;;;8.45;3.70;;;13.70;89.00;;;;;;5046593;28;20492;-77
2022/05/25 06:27:14;;;;;;;4.78;3.08;;;13.80;88.10;;;;;;5044660;28;20404;-77
2022/05/25 06:29:47;;;;;;;8.10;3.38;;;13.80;88.00;;;;;;5024050;28;20037;-76
2022/05/25 06:32:14;;;;;;;8.77;3.53;;;13.90;87.70;;;;;;5026310;28;20051;-76
2022/05/25 06:34:40;;;;;;;8.02;3.20;;;14.00;87.60;;;;;;5040663;28;20056;-76
2022/05/25 06:37:07;;;;;;;4.68;3.50;;;14.00;85.80;;;;;;5041603;28;20036;-71
2022/05/25 06:39:37;;;;;;;5.72;3.25;;;14.10;86.20;;;;;;5042214;28;20149;-78
2022/05/25 06:42:04;;;;;;;3.38;2.38;;;14.10;85.40;;;;;;5024468;28;20051;-77
2022/05/25 06:44:30;;;;;;;8.63;3.50;;;14.20;85.90;;;;;;5035900;28;20138;-75
2022/05/25 06:46:55;;;;;;;3.33;2.10;;;14.30;86.00;;;;;;5045584;28;20095;-73
2022/05/25 06:49:21;;;;;;;6.07;2.83;;;14.30;84.90;;;;;;5040588;28;20467;-77
2022/05/25 06:51:47;;;;;;;3.95;2.35;;;14.40;84.40;;;;;;5042641;28;20389;-77
2022/05/25 06:54:14;;;;;;;4.28;2.13;;;14.50;84.00;;;;;;5025593;28;20046;-75
2022/05/25 06:56:40;;;;;;;6.40;2.65;;;14.50;82.90;;;;;;5024512;28;20048;-77
2022/05/25 06:59:07;;;;;;;7.85;2.45;;;14.60;82.30;;;;;;5041870;28;20056;-76
2022/05/25 07:01:34;;;;;;;7.07;2.20;;;14.60;82.50;;;;;;5023082;28;20484;-75
2022/05/25 07:04:00;;;;;;;6.95;2.72;;;14.60;81.70;;;;;;5021188;28;20059;-78
2022/05/25 07:06:26;;;;;;;4.57;2.17;;;14.70;82.20;;;;;;5039551;28;20041;-75
2022/05/25 07:08:52;;;;;;;4.13;2.40;;;14.70;79.90;;;;;;5023146;28;20090;-76
2022/05/25 07:11:20;;;;;;;5.32;2.03;;;14.90;80.20;;;;;;5039629;28;20044;-75
2022/05/25 07:13:46;;;;;;;4.65;2.20;;;15.00;80.40;;;;;;5038987;28;20041;-76
2022/05/25 07:16:14;;;;;;;4.50;2.08;;;15.00;79.80;;;;;;5038039;28;20052;-76
2022/05/25 07:18:43;;;;;;;6.57;2.70;;;15.10;80.30;;;;;;5021862;28;20048;-76
2022/05/25 07:21:13;;;;;;;10.68;2.88;;;15.20;80.00;;;;;;5040855;28;20049;-77
2022/05/25 07:23:40;;;;;;;6.32;2.10;;;15.20;79.80;;;;;;5036120;28;20041;-77
2022/05/25 07:26:08;;;;;;;3.45;2.17;;;15.30;79.00;;;;;;5039220;28;20044;-76
2022/05/25 07:28:35;;;;;;;3.17;2.00;;;15.30;78.60;;;;;;5038025;28;20405;-78
2022/05/25 07:31:36;;;;;;;4.15;2.40;;;15.20;78.30;;;;;;5039257;28;20044;-78
2022/05/25 07:34:04;;;;;;;5.97;3.00;;;15.00;78.90;;;;;;5040223;28;20045;-74
2022/05/25 07:36:31;;;;;;;6.35;2.83;;;15.00;78.50;;;;;;5039270;28;20049;-76
2022/05/25 07:39:01;;;;;;;4.97;3.00;;;15.20;79.10;;;;;;5039811;28;20044;-75
2022/05/25 07:41:28;;;;;;;9.38;4.00;;;15.40;79.40;;;;;;5025115;28;20105;-76
2022/05/25 07:43:57;;;;;;;5.78;3.50;;;15.70;79.40;;;;;;5023686;28;20052;-75
2022/05/25 07:46:32;;;;;;;5.93;3.20;;;15.90;79.00;;;;;;5041786;28;20048;-75
2022/05/25 07:48:57;;;;;;;6.85;3.10;;;16.00;78.30;;;;;;5039959;28;20669;-75
2022/05/25 07:51:25;;;;;;;5.20;3.28;;;16.00;77.50;;;;;;5022188;28;20048;-77
2022/05/25 07:53:57;;;;;;;3.97;2.88;;;16.10;77.30;;;;;;5040236;28;20127;-76
2022/05/25 07:56:29;;;;;;;5.38;2.60;;;16.20;77.20;;;;;;5036582;28;20488;-77
2022/05/25 07:59:00;;;;;;;4.00;3.15;;;16.00;77.20;;;;;;5040763;28;20084;-78
2022/05/25 08:07:01;;;;;;;5.30;2.63;;;15.90;76.30;;;;;;5028253;28;20057;-76
2022/05/25 08:09:29;;;;;;;4.88;2.40;;;15.90;76.60;;;;;;5041588;28;20512;-76
2022/05/25 08:11:55;;;;;;;4.05;2.25;;;16.00;76.40;;;;;;5029379;28;20052;-77
2022/05/25 08:14:25;;;;;;;4.60;2.45;;;15.90;74.50;;;;;;5027074;28;20043;-75
2022/05/25 08:16:51;;;;;;;6.70;2.50;;;15.90;74.30;;;;;;5045129;28;20058;-73
2022/05/25 08:19:17;;;;;;;5.40;2.47;;;15.90;74.70;;;;;;5041155;28;20049;-76
2022/05/25 08:21:43;;;;;;;4.97;2.63;;;15.90;74.10;;;;;;5026124;28;20056;-75
2022/05/25 08:24:08;;;;;;;6.18;3.30;;;16.00;74.10;;;;;;5009783;28;20052;-75
2022/05/25 08:26:34;;;;;;;4.20;2.65;;;16.00;74.50;;;;;;5044959;28;20051;-77
2022/05/25 08:29:00;;;;;;;4.75;3.20;;;16.00;75.00;;;;;;5025780;28;20048;-73
2022/05/25 08:31:26;;;;;;;7.07;3.35;;;16.00;74.50;;;;;;5026087;28;20088;-73
2022/05/25 08:33:51;;;;;;;5.95;3.33;;;16.00;75.00;;;;;;5039316;28;20053;-73
2022/05/25 08:36:17;;;;;;;4.60;3.72;;;16.00;74.90;;;;;;5024490;28;20476;-76
2022/05/25 08:38:43;;;;;;;8.73;4.40;;;16.00;74.20;;;;;;5036996;28;20059;-76
2022/05/25 08:41:10;;;;;;;7.55;4.38;;;16.10;74.90;;;;;;5042420;28;20051;-76
2022/05/25 08:43:47;;;;;;;7.95;4.40;;;16.20;74.80;;;;;;5042094;28;20055;-77
2022/05/25 08:46:19;;;;;;;7.18;5.20;;;16.20;75.70;;;;;;5039211;28;20128;-74
2022/05/25 08:48:45;;;;;;;10.15;5.88;;;16.30;75.60;;;;;;5041161;28;20613;-75
2022/05/25 08:51:15;;;;;;;6.53;5.03;;;16.30;76.00;;;;;;5041212;28;20056;-74
2022/05/25 08:53:42;;;;;;;8.93;5.90;;;16.30;75.80;;;;;;5039592;28;20064;-79
2022/05/25 08:56:38;;;;;;;9.07;6.00;;;16.30;76.50;;;;;;5018395;28;20576;-75
2022/05/25 08:59:35;;;;;;;7.35;6.30;;;16.40;75.90;;;;;;5039646;28;20055;-74
2022/05/25 09:02:23;;;;;;;8.30;6.05;;;16.30;77.00;;;;;;5026781;28;20067;-73
2022/05/25 09:04:53;;;;;;;6.70;5.30;;;16.30;76.70;;;;;;5043923;28;20060;-74
2022/05/25 09:07:40;;;;;;;7.78;5.82;;;16.20;76.50;;;;;;5040506;28;20094;-75
2022/05/25 09:10:08;;;;;;;7.97;6.32;;;16.20;76.90;;;;;;5043851;28;20036;-73
2022/05/25 09:12:45;;;;;;;9.32;7.07;;;16.20;75.90;;;;;;5042834;28;20047;-73
2022/05/25 09:15:19;;;;;;;6.90;6.10;;;16.30;76.30;;;;;;5040103;28;20044;-73
2022/05/25 09:17:51;;;;;;;9.63;7.72;;;16.30;76.40;;;;;;5041635;28;20053;-74
2022/05/25 09:20:32;;;;;;;12.88;8.25;;;16.40;75.90;;;;;;5040516;28;20059;-73
2022/05/25 09:23:00;;;;;;;9.00;8.10;;;16.40;75.80;;;;;;5044766;28;20049;-73
2022/05/25 09:25:27;;;;;;;11.45;7.68;;;16.50;76.00;;;;;;5040972;28;20106;-73
2022/05/25 09:28:07;;;;;;;8.15;7.30;;;16.60;75.80;;;;;;5041241;28;20389;-75
2022/05/25 09:30:37;;;;;;;12.70;8.57;;;16.70;75.20;;;;;;5037757;28;20070;-73
2022/05/25 09:33:06;;;;;;;13.57;10.90;;;16.70;75.30;;;;;;5042542;28;20052;-78
2022/05/25 09:35:46;;;;;;;12.20;9.77;;;16.60;75.50;;;;;;5043350;28;20590;-75
2022/05/25 09:38:42;;;;;;;14.25;10.23;;;16.40;75.90;;;;;;5044505;28;20056;-75
2022/05/25 09:41:12;;;;;;;13.75;11.65;;;16.20;76.40;;;;;;5039940;28;20056;-73
2022/05/25 09:43:39;;;;;;;16.63;13.63;;;16.00;77.30;;;;;;5040766;28;20139;-76
2022/05/25 09:46:10;;;;;;;17.00;15.23;;;15.80;78.60;;;;;;5045624;28;20117;-73
2022/05/25 09:48:52;;;;;;;20.02;15.77;;;15.60;80.30;;;;;;5042212;28;20048;-72
2022/05/25 09:51:46;;;;;;;15.23;12.02;;;15.50;80.80;;;;;;5040410;28;20076;-76
2022/05/25 09:54:28;;;;;;;16.70;12.63;;;15.40;78.50;;;;;;5038977;28;20154;-72
2022/05/25 09:57:02;;;;;;;15.10;11.40;;;15.50;79.80;;;;;;5007933;28;20053;-74
2022/05/25 09:59:42;;;;;;;10.27;7.47;;;15.80;80.50;;;;;;5024642;28;20132;-75
2022/05/25 10:02:28;;;;;;;7.28;5.82;;;16.00;78.30;;;;;;5008570;28;20069;-73
2022/05/25 10:04:56;;;;;;;5.22;4.60;;;16.10;73.10;;;;;;5008555;28;20050;-74
2022/05/25 10:07:35;;;;;;;3.22;2.92;;;16.10;71.80;;;;;;5007556;28;20088;-75
2022/05/25 10:10:05;;;;;;;7.57;6.32;;;16.10;71.10;;;;;;5014152;28;20076;-75
2022/05/25 10:12:38;;;;;;;10.00;8.77;;;15.80;71.80;;;;;;4992059;28;20053;-74
2022/05/25 10:15:09;;;;;;;12.48;8.38;;;15.70;73.40;;;;;;5009256;28;20046;-72
2022/05/25 10:17:46;;;;;;;9.90;6.15;;;15.20;76.40;;;;;;5008004;28;20513;-74
2022/05/25 10:20:28;;;;;;;4.72;2.00;;;14.80;77.20;;;;;;5008078;28;20057;-76
2022/05/25 10:23:19;;;;;;;2.85;1.10;;;14.20;75.90;;;;;;5011199;28;20042;-74
2022/05/25 10:25:56;;;;;;;3.45;1.42;;;14.00;75.70;;;;;;5013715;28;20042;-74
2022/05/25 10:28:22;;;;;;;4.20;1.90;;;13.80;76.90;;;;;;5013867;28;20168;-76
2022/05/25 10:36:49;;;;;;;7.75;4.20;;;13.50;78.90;;;;;;5013302;28;20132;-76
2022/05/25 10:39:30;;;;;;;6.38;4.22;;;13.60;79.20;;;;;;5013477;28;20045;-75
2022/05/25 10:42:14;;;;;;;4.20;3.55;;;13.80;79.70;;;;;;5013200;28;20050;-76
2022/05/25 10:45:02;;;;;;;6.45;4.22;;;13.80;80.30;;;;;;4996952;28;20085;-73
2022/05/25 10:47:49;;;;;;;6.55;5.85;;;13.90;80.90;;;;;;5013061;28;20061;-75
2022/05/25 10:50:20;;;;;;;8.88;6.85;;;14.00;80.70;;;;;;5012983;28;20099;-73
2022/05/25 10:53:29;;;;;;;9.45;7.82;;;14.00;81.00;;;;;;5013242;28;20462;-74
2022/05/25 10:55:54;;;;;;;10.88;9.77;;;14.20;81.30;;;;;;5024826;28;20103;-76
2022/05/25 10:58:50;;;;;;;11.38;10.23;;;14.50;81.40;;;;;;5032635;28;20045;-78
2022/05/25 11:01:51;;;;;;;12.50;10.40;;;14.90;82.10;;;;;;5032493;28;20041;-75
2022/05/25 11:04:52;;;;;;;16.20;12.07;;;15.50;82.50;;;;;;5029461;28;20077;-76
2022/05/25 11:07:33;;;;;;;5.82;3.03;;;16.00;80.70;;;;;;4995052;28;20068;-77
2022/05/25 11:10:37;;;;;;;4.80;1.95;;;16.40;75.70;;;;;;5032427;28;20048;-75
2022/05/25 11:13:15;;;;;;;4.20;1.52;;;16.70;70.30;;;;;;5016032;28;20038;-73
2022/05/25 11:15:45;;;;;;;4.50;1.30;;;17.10;69.90;;;;;;5032626;28;20382;-74
2022/05/25 11:18:34;;;;;;;3.95;1.05;;;17.30;66.10;;;;;;5015911;28;20033;-74
2022/05/25 11:21:16;;;;;;;3.45;1.80;;;17.40;64.90;;;;;;5015837;28;20509;-74
2022/05/25 11:24:10;;;;;;;5.68;1.50;;;17.50;65.50;;;;;;5015688;28;20033;-74
2022/05/25 11:26:51;;;;;;;6.77;2.20;;;17.50;64.90;;;;;;5032241;28;20435;-74
2022/05/25 11:29:41;;;;;;;3.55;1.40;;;17.50;65.50;;;;;;5032320;28;20042;-75
2022/05/25 11:32:32;;;;;;;11.35;1.60;;;17.50;64.10;;;;;;5015619;28;20041;-73
2022/05/25 11:35:15;;;;;;;4.35;1.13;;;17.50;63.00;;;;;;5032076;28;20116;-74
2022/05/25 11:38:02;;;;;;;2.15;1.00;;;17.50;62.00;;;;;;5032092;28;20042;-73
2022/05/25 11:40:54;;;;;;;0.90;0.70;;;17.60;60.10;;;;;;5032009;28;20128;-74
2022/05/25 11:43:46;;;;;;;4.43;0.73;;;17.70;59.40;;;;;;5015648;28;20393;-73
2022/05/25 11:46:25;;;;;;;3.42;0.80;;;17.70;58.70;;;;;;5031801;28;20264;-73
2022/05/25 11:49:09;;;;;;;2.97;0.55;;;17.50;58.30;;;;;;5032204;28;20128;-76
2022/05/25 11:51:58;;;;;;;;;;;17.70;60.10;;;;;;5032239;28;20045;-75
2022/05/25 11:55:09;;;;;;;3.75;1.10;;;17.70;59.30;;;;;;5023662;28;19916;-74
2022/05/25 11:58:11;;;;;;;5.75;1.52;;;17.70;59.10;;;;;;5024015;28;20049;-77
2022/05/25 12:00:56;;;;;;;3.25;1.00;;;17.70;58.90;;;;;;5031941;28;20051;-75
2022/05/25 12:03:47;;;;;;;4.07;1.20;;;17.50;59.80;;;;;;5031725;28;20053;-72
2022/05/25 12:06:47;;;;;;;5.78;1.00;;;17.70;59.40;;;;;;5031589;28;20049;-76
2022/05/25 12:09:27;;;;;;;4.47;1.50;;;17.60;59.10;;;;;;5031833;28;20074;-75
2022/05/25 12:12:21;;;;;;;4.28;1.10;;;17.60;60.10;;;;;;5031593;28;20044;-73
2022/05/25 12:14:49;;;;;;;4.07;1.30;;;17.80;60.30;;;;;;5015098;28;20489;-75
2022/05/25 12:17:19;;;;;;;2.63;1.50;;;17.50;58.10;;;;;;5015347;28;20083;-75
2022/05/25 12:19:48;;;;;;;6.40;1.45;;;17.50;58.60;;;;;;5015009;28;20083;-75
2022/05/25 12:22:18;;;;;;;4.55;1.40;;;17.50;57.90;;;;;;5031515;28;20129;-72
2022/05/25 12:24:51;;;;;;;6.70;1.00;;;17.50;57.40;;;;;;5031459;28;20073;-73
2022/05/25 12:27:21;;;;;;;3.67;1.10;;;17.30;56.90;;;;;;5031524;28;20042;-76
2022/05/25 12:30:14;;;;;;;3.05;1.00;;;17.30;57.80;;;;;;5031401;28;20089;-73
2022/05/25 12:32:41;;;;;;;2.17;0.90;;;17.40;56.90;;;;;;5031490;28;20041;-73
2022/05/25 12:35:11;;;;;;;4.38;1.33;;;17.60;56.50;;;;;;5031692;28;20389;-77
2022/05/25 12:37:41;;;;;;;3.85;0.93;;;17.80;55.50;;;;;;5031354;28;20481;-76
2022/05/25 12:40:25;;;;;;;3.90;1.05;;;17.50;53.40;;;;;;5032693;28;20045;-73
2022/05/25 12:42:51;;;;;;;1.45;0.60;;;17.40;51.80;;;;;;5031601;28;20042;-74
2022/05/25 12:48:30;;;;;;;2.45;0.95;;;17.30;55.50;;;;;;5031296;28;20043;-76
2022/05/25 12:51:08;;;;;;;3.15;1.25;;;17.10;55.20;;;;;;5031453;28;20175;-74
2022/05/25 12:53:56;;;;;;;3.78;0.90;;;17.20;54.40;;;;;;5031730;28;20042;-76
2022/05/25 12:56:25;;;;;;;3.47;1.25;;;17.00;57.10;;;;;;5038366;28;20103;-75
2022/05/25 12:58:59;;;;;;;3.17;0.95;;;17.00;57.10;;;;;;5055233;28;20052;-75
2022/05/25 13:01:28;;;;;;;4.80;1.17;;;17.10;56.50;;;;;;5043871;28;20127;-75
2022/05/25 13:03:57;;;;;;;4.20;0.70;;;17.00;57.30;;;;;;5022616;28;20045;-73
2022/05/25 13:06:29;;;;;;;4.57;1.00;;;17.00;57.40;;;;;;5037417;28;20056;-75
2022/05/25 13:09:00;;;;;;;1.52;0.60;;;16.70;58.20;;;;;;5037727;28;20048;-76
2022/05/25 13:11:50;;;;;;;2.72;0.93;;;16.80;57.80;;;;;;5042054;28;20041;-75
2022/05/25 13:14:24;;;;;;;2.75;1.08;;;16.90;57.80;;;;;;5039055;28;20121;-76
2022/05/25 13:16:53;;;;;;;4.18;0.60;;;16.80;58.00;;;;;;5021923;28;20045;-77
2022/05/25 13:19:45;;;;;;;1.52;0.90;;;16.90;57.20;;;;;;5017546;28;20056;-78
2022/05/25 13:22:16;;;;;;;2.78;0.63;;;16.90;57.50;;;;;;5040500;28;20041;-77
2022/05/25 13:25:36;;;;;;;2.67;0.80;;;17.00;58.20;;;;;;5037017;28;20414;-73
2022/05/25 13:28:32;;;;;;;6.57;1.30;;;17.00;59.30;;;;;;4980374;28;20050;-77
2022/05/25 13:31:22;;;;;;;3.72;1.00;;;17.10;59.10;;;;;;5025634;28;20067;-76
2022/05/25 13:33:48;;;;;;;3.08;0.80;;;17.10;59.60;;;;;;5054496;28;20044;-73